Time;durP1;ratioP1;P1;durP2;ratioP2;P2;SDS_P1;SDS_P2;PMS_P1;PMS_P2;Temp;Humidity;BMP_temperature;BMP_pressure;BME280_temperature;BME280_humidity;BME280_pressure;Samples;Min_cycle;Max_cycle;Signal;HPM_P1;HPM_P2
2023/04/04 00:01:42;;;;;;;;;9.00;9.00;;;;;7.64;38.93;99360.53;6178581;28;97227;-65
2023/04/04 00:04:46;;;;;;;;;10.00;9.25;;;;;7.51;39.17;99361.25;6186256;28;99140;-65
2023/04/04 00:07:51;;;;;;;;;11.00;10.40;;;;;7.44;39.04;99360.31;6170129;28;96607;-64
2023/04/04 00:10:58;;;;;;;;;9.25;8.75;;;;;7.36;39.36;99361.28;6194400;28;96774;-64
2023/04/04 00:14:02;;;;;;;;;11.00;10.00;;;;;7.33;39.50;99358.16;6212812;28;96674;-65
2023/04/04 00:17:05;;;;;;;;;9.00;9.00;;;;;7.34;39.58;99357.13;6177323;28;96584;-65
2023/04/04 00:20:10;;;;;;;;;9.80;9.00;;;;;7.31;39.83;99362.88;6194283;28;98457;-65
2023/04/04 00:23:14;;;;;;;;;9.60;9.00;;;;;7.35;39.65;99366.84;6190261;28;97014;-65
2023/04/04 00:26:18;;;;;;;;;10.75;10.00;;;;;7.29;39.29;99371.09;6180627;28;96660;-65
2023/04/04 00:29:22;;;;;;;;;13.60;13.00;;;;;7.28;39.38;99361.38;6207241;28;96313;-65
2023/04/04 00:32:25;;;;;;;;;12.40;11.40;;;;;7.31;39.79;99361.03;6194254;28;96339;-65
2023/04/04 00:35:29;;;;;;;;;10.00;9.40;;;;;7.31;40.05;99362.88;6207175;28;96525;-65
2023/04/04 00:38:33;;;;;;;;;9.50;9.00;;;;;7.28;39.71;99363.25;6208794;28;96752;-65
2023/04/04 00:41:37;;;;;;;;;11.40;10.80;;;;;7.31;39.62;99373.59;6212028;28;96318;-65
2023/04/04 00:44:40;;;;;;;;;9.00;8.00;;;;;7.30;39.62;99361.22;6177898;28;96564;-65
2023/04/04 00:47:44;;;;;;;;;11.25;10.00;;;;;7.28;39.59;99366.75;6192870;28;96275;-65
2023/04/04 00:50:47;;;;;;;;;11.00;10.00;;;;;7.27;40.20;99366.97;6212560;28;96375;-65
2023/04/04 00:53:52;;;;;;;;;10.00;10.00;;;;;7.21;40.09;99363.19;6212258;28;96325;-65
2023/04/04 00:56:57;;;;;;;;;10.20;10.00;;;;;7.13;40.30;99365.97;6193869;28;96440;-65
2023/04/04 01:00:05;;;;;;;;;11.00;11.00;;;;;7.10;40.30;99365.50;6196859;28;97479;-65
2023/04/04 01:03:11;;;;;;;;;11.00;11.00;;;;;7.07;40.46;99369.41;6237190;28;96166;-65
2023/04/04 01:06:16;;;;;;;;;12.60;10.60;;;;;7.00;40.90;99373.84;6236976;28;96903;-65
2023/04/04 01:09:21;;;;;;;;;10.00;9.60;;;;;6.92;41.19;99366.75;6218319;28;98562;-65
2023/04/04 01:12:25;;;;;;;;;11.00;11.00;;;;;6.89;41.35;99367.09;6235577;28;96403;-65
2023/04/04 01:15:29;;;;;;;;;12.00;10.00;;;;;6.93;41.09;99376.47;6194197;28;96444;-65
2023/04/04 01:18:36;;;;;;;;;12.60;12.00;;;;;6.87;41.31;99371.84;6193432;28;99601;-65
2023/04/04 01:21:41;;;;;;;;;11.00;11.00;;;;;6.86;41.29;99372.84;6180883;28;98510;-65
2023/04/04 01:24:48;;;;;;;;;12.60;11.00;;;;;6.82;41.56;99384.13;6236532;28;96978;-65
2023/04/04 01:27:53;;;;;;;;;12.50;11.00;;;;;6.78;41.52;99381.00;6217518;28;96629;-65
2023/04/04 01:31:00;;;;;;;;;12.00;11.00;;;;;6.66;41.71;99378.94;6218582;28;96222;-65
2023/04/04 01:34:12;;;;;;;;;10.40;10.40;;;;;6.70;41.73;99364.16;6219067;28;96365;-65
2023/04/04 01:37:21;;;;;;;;;10.25;10.00;;;;;6.73;41.75;99379.88;6194281;28;96627;-65
2023/04/04 01:40:28;;;;;;;;;10.40;9.40;;;;;6.61;41.83;99360.75;6218577;28;96740;-65
2023/04/04 01:43:33;;;;;;;;;11.40;11.00;;;;;6.68;41.90;99385.78;6218163;28;96829;-65
2023/04/04 01:46:38;;;;;;;;;13.00;12.00;;;;;6.73;41.80;99385.22;6218689;28;96465;-64
2023/04/04 01:49:43;;;;;;;;;13.60;13.00;;;;;6.72;41.81;99378.22;6235201;28;96437;-65
2023/04/04 01:52:48;;;;;;;;;9.00;7.20;;;;;6.73;41.97;99379.88;6206090;28;96655;-65
2023/04/04 01:55:53;;;;;;;;;14.60;13.00;;;;;6.78;42.05;99381.00;6223740;28;96282;-65
2023/04/04 01:58:58;;;;;;;;;10.00;9.25;;;;;6.75;41.83;99378.66;6204486;28;96299;-65
2023/04/04 02:02:01;;;;;;;;;12.60;10.00;;;;;6.75;41.82;99381.34;6215902;28;96266;-65
2023/04/04 02:05:05;;;;;;;;;9.20;9.00;;;;;6.80;41.67;99383.47;6203802;28;98326;-65
2023/04/04 02:08:08;;;;;;;;;12.00;12.00;;;;;6.77;42.02;99373.97;6213981;28;96467;-65
2023/04/04 02:11:21;;;;;;;;;11.00;10.00;;;;;6.72;42.01;99379.03;6222162;28;96246;-64
2023/04/04 02:14:27;;;;;;;;;14.00;13.67;;;;;6.61;41.81;99363.41;6239245;28;96258;-65
2023/04/04 02:17:31;;;;;;;;;10.00;10.00;;;;;6.74;41.85;99384.22;6200547;28;96583;-65
2023/04/04 02:20:35;;;;;;;;;11.00;10.00;;;;;6.75;41.88;99383.19;6224287;28;96333;-65
2023/04/04 02:23:38;;;;;;;;;13.40;12.40;;;;;6.71;41.96;99387.25;6196276;28;96795;-65
2023/04/04 02:26:42;;;;;;;;;12.00;11.00;;;;;6.73;41.86;99375.34;6214985;28;96846;-64
2023/04/04 02:29:47;;;;;;;;;10.50;9.50;;;;;6.72;42.21;99378.22;6215163;28;96539;-64
2023/04/04 02:32:51;;;;;;;;;13.00;13.00;;;;;6.76;41.98;99377.66;6221286;28;96266;-64
2023/04/04 02:35:57;;;;;;;;;14.00;14.00;;;;;6.77;41.93;99382.00;6222124;28;97675;-64
2023/04/04 02:39:01;;;;;;;;;11.00;10.80;;;;;6.80;42.06;99384.28;6220700;28;96984;-64
2023/04/04 02:42:06;;;;;;;;;13.00;11.00;;;;;6.84;42.03;99380.22;6239377;28;96375;-65
2023/04/04 02:45:13;;;;;;;;;11.20;10.80;;;;;6.84;42.12;99379.41;6221355;28;96358;-64
2023/04/04 02:48:24;;;;;;;;;11.40;10.40;;;;;6.86;42.21;99386.25;6218230;28;96354;-65
2023/04/04 02:51:33;;;;;;;;;11.20;11.00;;;;;6.86;42.09;99383.56;6216289;27;98353;-65
2023/04/04 02:54:37;;;;;;;;;10.67;10.00;;;;;6.87;42.10;99376.34;6221141;28;96375;-64
2023/04/04 02:57:42;;;;;;;;;14.00;12.20;;;;;6.83;42.26;99378.59;6204177;28;98484;-64
2023/04/04 03:00:53;;;;;;;;;13.00;12.60;;;;;6.76;42.37;99376.81;6219693;28;96632;-65
2023/04/04 03:03:59;;;;;;;;;13.60;12.60;;;;;6.77;42.50;99371.28;6215198;28;96734;-65
2023/04/04 03:07:03;;;;;;;;;10.67;9.67;;;;;6.76;42.50;99374.13;6237219;28;96541;-64
2023/04/04 03:10:07;;;;;;;;;11.40;11.40;;;;;6.74;42.36;99371.66;6228243;28;97069;-64
2023/04/04 03:13:11;;;;;;;;;13.40;13.00;;;;;6.69;42.62;99368.72;6200416;28;98339;-64
2023/04/04 03:16:18;;;;;;;;;14.40;13.40;;;;;6.79;42.18;99363.88;6220752;28;96207;-65
2023/04/04 03:19:25;;;;;;;;;12.00;11.00;;;;;6.81;42.09;99363.69;6218873;28;96273;-65
2023/04/04 03:22:29;;;;;;;;;14.00;14.00;;;;;6.81;42.26;99366.38;6236208;28;97645;-65
2023/04/04 03:25:36;;;;;;;;;13.20;12.20;;;;;6.71;42.37;99355.09;6201502;28;97778;-64
2023/04/04 03:28:41;;;;;;;;;11.20;10.20;;;;;6.83;42.23;99373.22;6224570;28;98125;-64
2023/04/04 03:31:47;;;;;;;;;12.25;10.75;;;;;6.80;42.14;99362.84;6197020;28;96704;-65
2023/04/04 03:34:51;;;;;;;;;14.60;13.40;;;;;6.83;42.26;99365.19;6224165;28;96140;-65
2023/04/04 03:37:55;;;;;;;;;11.80;10.00;;;;;6.83;42.26;99359.00;6212774;28;97970;-65
2023/04/04 03:41:02;;;;;;;;;11.75;10.75;;;;;6.88;42.27;99351.22;6235261;28;96505;-65
2023/04/04 03:44:06;;;;;;;;;16.00;15.00;;;;;6.74;42.04;99347.56;6217697;28;96244;-65
2023/04/04 03:47:10;;;;;;;;;14.00;12.40;;;;;6.83;42.22;99343.75;6213131;28;97490;-65
2023/04/04 03:50:14;;;;;;;;;11.60;11.60;;;;;6.88;42.37;99354.75;6219163;28;96373;-65
2023/04/04 03:53:23;;;;;;;;;13.00;12.00;;;;;6.81;42.37;99342.25;6208861;28;96200;-65
2023/04/04 03:56:27;;;;;;;;;11.75;10.75;;;;;6.79;42.39;99345.09;6223129;28;96323;-64
2023/04/04 03:59:30;;;;;;;;;11.60;11.00;;;;;6.83;42.25;99340.22;6211278;28;96626;-64
2023/04/04 04:02:35;;;;;;;;;10.50;10.00;;;;;6.85;42.39;99339.00;6204915;28;96336;-65
2023/04/04 04:05:39;;;;;;;;;11.00;10.00;;;;;6.81;42.30;99340.41;6192376;28;96744;-65
2023/04/04 04:08:42;;;;;;;;;12.00;11.00;;;;;6.84;42.16;99339.22;6201812;28;96444;-65
2023/04/04 04:11:46;;;;;;;;;10.00;10.00;;;;;6.85;42.24;99335.50;6189146;28;97065;-65
2023/04/04 04:14:50;;;;;;;;;11.60;9.60;;;;;6.88;42.05;99335.16;6209995;28;96274;-64
2023/04/04 04:17:55;;;;;;;;;11.00;10.00;;;;;6.83;42.12;99335.72;6213101;28;96263;-64
2023/04/04 04:21:02;;;;;;;;;10.00;9.00;;;;;6.86;42.28;99345.22;6203693;28;96871;-65
2023/04/04 04:24:09;;;;;;;;;8.00;7.00;;;;;6.89;42.35;99336.81;6190873;28;96492;-65
2023/04/04 04:27:12;;;;;;;;;9.00;9.00;;;;;6.90;42.34;99347.31;6174676;28;96649;-65
2023/04/04 04:30:16;;;;;;;;;8.00;7.20;;;;;6.91;42.34;99343.63;6197090;28;96238;-65
2023/04/04 04:33:29;;;;;;;;;7.00;7.00;;;;;6.97;42.36;99337.53;6194218;28;96315;-64
2023/04/04 04:36:37;;;;;;;;;8.00;8.00;;;;;7.04;42.23;99334.91;6207532;28;97634;-64
2023/04/04 04:40:16;;;;;;;;;11.00;9.60;;;;;7.01;42.23;99342.50;6200817;28;96731;-65
2023/04/04 04:43:28;;;;;;;;;9.50;9.00;;;;;6.93;42.50;99349.66;6180372;28;96255;-64
2023/04/04 04:46:32;;;;;;;;;9.60;9.00;;;;;6.98;42.39;99343.72;6210969;28;96198;-65
2023/04/04 04:49:38;;;;;;;;;10.60;10.00;;;;;6.99;42.54;99348.03;6192407;28;96544;-64
2023/04/04 04:52:44;;;;;;;;;11.00;10.60;;;;;6.99;42.48;99349.91;6208777;28;96411;-64
2023/04/04 04:55:51;;;;;;;;;7.20;7.20;;;;;6.94;42.64;99345.09;6194394;28;96613;-64
2023/04/04 04:58:55;;;;;;;;;10.60;10.00;;;;;6.96;42.74;99354.63;6193672;28;96315;-64
2023/04/04 05:02:01;;;;;;;;;9.00;8.40;;;;;6.92;42.59;99339.09;6213474;28;96509;-65
2023/04/04 05:05:07;;;;;;;;;10.00;9.00;;;;;7.04;42.72;99359.03;6227487;28;96372;-64
2023/04/04 05:08:12;;;;;;;;;11.00;10.00;;;;;6.99;42.79;99356.09;6229100;28;96302;-64
2023/04/04 05:11:27;;;;;;;;;10.00;9.50;;;;;7.01;42.55;99359.41;6233660;27;97579;-64
2023/04/04 05:14:30;;;;;;;;;10.80;10.80;;;;;7.10;42.52;99358.28;6218294;28;96670;-64
2023/04/04 05:17:35;;;;;;;;;9.00;9.00;;;;;7.15;42.81;99349.69;6224385;28;96306;-64
2023/04/04 05:20:43;;;;;;;;;9.00;9.00;;;;;7.20;42.50;99348.09;6216032;28;96206;-65
2023/04/04 05:23:49;;;;;;;;;11.40;10.00;;;;;7.27;42.02;99350.88;6204436;28;96037;-64
2023/04/04 05:26:54;;;;;;;;;10.80;10.40;;;;;7.35;42.24;99354.25;6197012;28;96348;-65
2023/04/04 05:29:58;;;;;;;;;13.50;13.00;;;;;7.48;42.01;99355.44;6226338;28;96325;-64
2023/04/04 05:33:11;;;;;;;;;11.00;10.60;;;;;7.49;41.75;99349.84;6205878;28;96409;-64
2023/04/04 05:36:21;;;;;;;;;9.50;8.50;;;;;7.63;41.55;99359.69;6210439;28;96276;-64
2023/04/04 05:39:32;;;;;;;;;11.50;10.00;;;;;7.72;41.39;99363.91;6205091;28;96396;-64
2023/04/04 05:42:40;;;;;;;;;10.40;10.00;;;;;7.77;41.12;99366.06;6225801;27;96288;-64
2023/04/04 05:45:43;;;;;;;;;8.80;8.40;;;;;7.84;41.20;99369.63;6218428;28;98343;-65
2023/04/04 05:48:49;;;;;;;;;12.00;12.00;;;;;7.89;40.92;99360.97;6217418;28;97306;-64
2023/04/04 05:51:55;;;;;;;;;10.80;10.40;;;;;7.95;40.87;99368.28;6218877;28;96486;-64
2023/04/04 05:54:59;;;;;;;;;9.00;9.00;;;;;8.02;40.71;99371.81;6223498;28;96260;-64
2023/04/04 05:58:06;;;;;;;;;10.60;9.60;;;;;8.17;40.22;99383.31;6212064;28;96979;-65
2023/04/04 06:01:21;;;;;;;;;10.00;9.00;;;;;8.31;40.29;99381.63;6204939;28;96352;-65
2023/04/04 06:04:28;;;;;;;;;11.50;10.00;;;;;8.38;39.78;99375.25;6185152;28;96231;-65
2023/04/04 06:07:35;;;;;;;;;10.00;8.80;;;;;8.46;39.86;99385.84;6173081;28;96363;-65
2023/04/04 06:10:38;;;;;;;;;12.00;10.00;;;;;8.58;39.64;99368.16;6183284;28;96310;-65
2023/04/04 06:13:42;;;;;;;;;9.40;8.60;;;;;8.73;39.36;99383.34;6197669;28;96219;-65
2023/04/04 06:16:50;;;;;;;;;8.00;7.60;;;;;8.80;39.09;99381.50;6201385;28;96175;-65
2023/04/04 06:19:54;;;;;;;;;11.00;10.50;;;;;8.91;38.54;99381.78;6201731;28;96235;-65
2023/04/04 06:23:02;;;;;;;;;10.20;9.20;;;;;8.76;38.66;99359.56;6196780;28;97269;-65
2023/04/04 06:26:08;;;;;;;;;10.75;9.75;;;;;8.91;39.07;99380.97;6189387;28;96653;-65
2023/04/04 06:29:14;;;;;;;;;12.00;11.00;;;;;8.88;38.91;99378.69;6171802;28;96257;-65
2023/04/04 06:32:19;;;;;;;;;10.25;9.00;;;;;8.95;38.96;99387.59;6187145;28;96388;-65
2023/04/04 06:35:23;;;;;;;;;10.00;10.00;;;;;8.99;38.85;99388.88;6156529;28;98541;-65
2023/04/04 06:38:35;;;;;;;;;10.00;10.00;;;;;9.08;38.63;99391.22;6187458;28;97277;-65
2023/04/04 06:41:44;;;;;;;;;10.80;9.00;;;;;9.24;38.57;99390.00;6180974;28;96599;-65
2023/04/04 06:44:48;;;;;;;;;12.00;12.00;;;;;9.42;38.32;99379.53;6212839;28;96924;-65
2023/04/04 06:47:53;;;;;;;;;9.60;9.00;;;;;9.64;37.74;99382.91;6196623;28;96477;-65
2023/04/04 06:50:56;;;;;;;;;12.50;12.00;;;;;9.79;37.61;99382.72;6214304;28;96291;-65
2023/04/04 06:54:02;;;;;;;;;10.75;10.00;;;;;9.98;37.23;99382.75;6179043;28;97020;-65
2023/04/04 06:57:05;;;;;;;;;11.00;10.60;;;;;10.10;37.03;99372.19;6197065;28;96628;-65
2023/04/04 07:00:10;;;;;;;;;11.00;10.00;;;;;10.06;36.45;99370.13;6199159;28;96794;-65
2023/04/04 07:03:14;;;;;;;;;10.00;8.67;;;;;10.33;36.16;99372.63;6197767;28;96864;-65
2023/04/04 07:06:18;;;;;;;;;9.80;8.80;;;;;10.49;35.82;99367.84;6212928;28;97290;-65
2023/04/04 07:09:23;;;;;;;;;10.60;10.00;;;;;10.78;35.65;99368.22;6211175;28;96484;-65
2023/04/04 07:12:32;;;;;;;;;10.00;9.60;;;;;11.18;34.80;99370.78;6194816;28;96477;-65
2023/04/04 07:15:35;;;;;;;;;11.25;11.00;;;;;11.48;34.43;99374.59;6213887;28;96464;-65
2023/04/04 07:18:39;;;;;;;;;10.80;8.80;;;;;11.55;33.48;99371.84;6214003;28;96900;-65
2023/04/04 07:21:42;;;;;;;;;12.00;10.40;;;;;11.57;33.59;99381.41;6211088;28;96528;-65
2023/04/04 07:24:47;;;;;;;;;12.00;11.00;;;;;11.56;33.86;99384.31;6195841;28;96956;-65
2023/04/04 07:27:52;;;;;;;;;10.00;10.00;;;;;11.41;33.38;99373.78;6213644;28;96408;-65
2023/04/04 07:31:13;;;;;;;;;11.25;11.00;;;;;11.06;33.80;99378.72;6210688;28;96361;-65
2023/04/04 07:34:17;;;;;;;;;12.00;9.00;;;;;11.06;33.99;99370.63;6195308;28;98581;-65
2023/04/04 07:37:20;;;;;;;;;10.00;9.50;;;;;11.19;33.72;99380.56;6186391;28;96649;-65
2023/04/04 07:40:25;;;;;;;;;11.20;11.00;;;;;11.25;34.01;99377.81;6175333;28;99487;-65
2023/04/04 07:43:28;;;;;;;;;11.00;9.00;;;;;11.24;33.82;99372.63;6195563;28;96441;-65
2023/04/04 07:46:31;;;;;;;;;11.75;11.50;;;;;11.26;33.80;99378.63;6213083;28;96418;-65
2023/04/04 07:49:35;;;;;;;;;11.20;10.20;;;;;11.36;34.00;99370.91;6211387;28;96536;-65
2023/04/04 07:52:38;;;;;;;;;12.00;11.60;;;;;11.80;34.12;99380.06;6219457;28;96301;-65
2023/04/04 07:55:43;;;;;;;;;10.00;9.00;;;;;12.12;32.60;99369.00;6219253;28;98470;-65
2023/04/04 07:58:46;;;;;;;;;13.00;11.00;;;;;12.63;32.53;99375.22;6219193;28;96823;-65
2023/04/04 08:01:50;;;;;;;;;10.00;9.00;;;;;13.15;31.91;99355.72;6237609;28;96688;-65
2023/04/04 08:04:53;;;;;;;;;12.00;11.00;;;;;13.86;30.93;99365.81;6219291;28;98475;-65
2023/04/04 08:07:56;;;;;;;;;11.00;10.00;;;;;14.60;29.70;99365.28;6238037;28;96368;-65
2023/04/04 08:11:01;;;;;;;;;9.00;8.75;;;;;14.45;28.62;99362.19;6238172;28;97064;-64
2023/04/04 08:14:05;;;;;;;;;10.00;8.60;;;;;15.07;29.03;99365.22;6238214;28;96474;-65
2023/04/04 08:17:08;;;;;;;;;10.00;8.80;;;;;15.38;28.30;99353.09;6221544;28;96217;-65
2023/04/04 08:20:13;;;;;;;;;9.40;8.80;;;;;15.66;27.36;99355.00;6213292;28;96344;-64
2023/04/04 08:23:16;;;;;;;;;11.00;10.00;;;;;15.30;26.22;99353.44;6195478;28;97484;-65
2023/04/04 08:26:21;;;;;;;;;10.25;9.25;;;;;15.31;26.84;99358.66;6212976;28;96395;-65
2023/04/04 08:29:25;;;;;;;;;11.00;11.00;;;;;14.82;27.46;99332.91;6212531;28;97014;-65
2023/04/04 08:32:29;;;;;;;;;11.00;11.00;;;;;14.78;26.73;99341.75;6194021;28;98497;-65
2023/04/04 08:35:32;;;;;;;;;9.60;8.60;;;;;15.14;26.43;99347.72;6193755;28;100137;-65
2023/04/04 08:38:35;;;;;;;;;10.00;9.60;;;;;15.52;26.37;99347.16;6212638;28;96245;-65
2023/04/04 08:41:45;;;;;;;;;10.00;10.00;;;;;15.60;25.15;99335.91;6212661;28;96592;-64
2023/04/04 08:44:52;;;;;;;;;10.00;9.00;;;;;15.65;24.73;99337.06;6194515;28;96636;-64
2023/04/04 08:47:59;;;;;;;;;9.00;9.00;;;;;15.92;26.26;99343.53;6177426;28;96694;-64
2023/04/04 08:51:04;;;;;;;;;10.00;8.75;;;;;16.26;24.92;99331.63;6212695;28;96254;-64
2023/04/04 08:54:09;;;;;;;;;9.00;8.00;;;;;16.35;23.50;99324.69;6211195;28;96816;-65
2023/04/04 08:57:14;;;;;;;;;8.40;8.00;;;;;17.02;23.82;99330.03;6213022;28;96203;-65
2023/04/04 09:00:20;;;;;;;;;9.00;9.00;;;;;17.53;21.87;99320.56;6198631;28;98897;-64
2023/04/04 09:03:26;;;;;;;;;12.00;12.00;;;;;18.04;22.67;99324.63;6219596;28;96355;-65
2023/04/04 09:06:30;;;;;;;;;11.25;10.00;;;;;18.13;22.35;99325.78;6237424;28;96379;-65
2023/04/04 09:09:36;;;;;;;;;11.00;10.00;;;;;17.67;22.12;99315.56;6201560;28;96945;-65
2023/04/04 09:12:46;;;;;;;;;9.00;7.25;;;;;16.92;22.92;99315.44;6215999;28;96387;-65
2023/04/04 09:15:52;;;;;;;;;9.75;9.00;;;;;16.52;23.47;99316.47;6234112;28;97485;-65
2023/04/04 09:18:56;;;;;;;;;8.00;8.00;;;;;15.97;23.39;99324.59;6240801;27;98024;-65
2023/04/04 09:21:59;;;;;;;;;8.00;8.00;;;;;15.43;23.81;99329.56;6241142;28;96454;-65
2023/04/04 09:25:07;;;;;;;;;7.80;7.00;;;;;14.99;22.75;99322.16;6240990;28;96465;-65
2023/04/04 09:28:14;;;;;;;;;8.20;8.00;;;;;14.94;22.12;99330.19;6223090;28;97546;-65
2023/04/04 09:31:17;;;;;;;;;8.00;7.50;;;;;15.65;21.10;99327.00;6223563;28;96357;-65
2023/04/04 09:34:21;;;;;;;;;7.00;7.00;;;;;16.18;21.77;99320.31;6222981;28;96370;-64
2023/04/04 09:37:25;;;;;;;;;6.00;6.00;;;;;15.92;20.42;99330.78;6223420;28;96628;-65
2023/04/04 09:40:29;;;;;;;;;8.60;8.00;;;;;15.60;20.39;99329.63;6241400;28;96298;-64
2023/04/04 09:43:34;;;;;;;;;6.00;6.00;;;;;15.51;20.99;99331.09;6222588;28;98361;-64
2023/04/04 09:46:38;;;;;;;;;7.00;6.00;;;;;15.66;20.50;99322.41;6241659;28;96323;-64
2023/04/04 09:49:42;;;;;;;;;7.00;7.00;;;;;15.25;20.73;99324.28;6223333;28;96538;-65
2023/04/04 09:52:48;;;;;;;;;5.00;5.00;;;;;14.90;20.88;99312.72;6241255;28;96483;-65
2023/04/04 09:55:53;;;;;;;;;6.20;6.20;;;;;14.36;21.70;99328.34;6241651;28;96849;-65
2023/04/04 09:59:00;;;;;;;;;9.00;8.33;;;;;14.04;21.06;99326.97;6241213;28;96539;-65
2023/04/04 10:02:09;;;;;;;;;8.00;7.00;;;;;14.22;21.43;99327.69;6222813;28;97003;-65
2023/04/04 10:05:14;;;;;;;;;9.00;9.00;;;;;14.35;21.29;99321.22;6225408;28;96656;-65
2023/04/04 10:08:21;;;;;;;;;7.00;7.00;;;;;14.27;22.25;99321.56;6239417;28;96549;-64
2023/04/04 10:11:32;;;;;;;;;8.20;8.20;;;;;14.17;22.25;99319.44;6238249;28;96625;-64
2023/04/04 10:14:37;;;;;;;;;9.00;9.00;;;;;14.32;22.28;99305.41;6236404;28;97877;-64
2023/04/04 10:17:41;;;;;;;;;9.00;8.50;;;;;14.63;22.68;99318.66;6238922;28;96867;-65
2023/04/04 10:20:47;;;;;;;;;7.00;7.00;;;;;14.60;22.45;99316.44;6232453;28;96406;-64
2023/04/04 10:23:53;;;;;;;;;7.00;7.00;;;;;14.33;22.42;99288.91;6218164;28;96671;-64
2023/04/04 10:26:56;;;;;;;;;7.00;7.00;;;;;14.35;22.68;99304.94;6220589;28;96462;-64
2023/04/04 10:30:01;;;;;;;;;7.00;6.40;;;;;14.26;23.33;99312.63;6239733;28;96423;-64
2023/04/04 10:33:11;;;;;;;;;7.00;7.00;;;;;14.18;22.88;99312.94;6239451;28;96462;-64
2023/04/04 10:36:20;;;;;;;;;7.75;7.00;;;;;14.17;23.27;99308.59;6240410;28;96276;-64
2023/04/04 10:39:27;;;;;;;;;8.00;8.00;;;;;14.18;23.03;99301.28;6236937;28;96799;-64
2023/04/04 10:42:37;;;;;;;;;8.00;8.00;;;;;14.61;23.42;99295.53;6220030;28;97252;-65
2023/04/04 10:45:42;;;;;;;;;7.00;7.00;;;;;14.66;23.04;99311.94;6237096;28;97206;-64
2023/04/04 10:48:47;;;;;;;;;10.67;9.00;;;;;14.70;23.55;99313.09;6240111;28;96266;-64
2023/04/04 10:51:53;;;;;;;;;11.25;11.00;;;;;14.73;23.16;99294.44;6233309;28;96186;-64
2023/04/04 10:55:04;;;;;;;;;7.00;7.00;;;;;14.63;22.68;99302.38;6227559;28;96403;-64
2023/04/04 10:58:08;;;;;;;;;5.80;5.80;;;;;14.36;23.00;99312.06;6224699;28;96337;-64
2023/04/04 11:01:15;;;;;;;;;8.00;8.00;;;;;14.19;23.07;99309.19;6210835;28;96681;-64
2023/04/04 11:04:20;;;;;;;;;8.40;8.40;;;;;14.12;22.94;99310.38;6226843;28;96585;-64
2023/04/04 11:07:28;;;;;;;;;8.60;8.60;;;;;14.01;23.12;99312.00;6193999;28;96717;-64
2023/04/04 11:10:34;;;;;;;;;8.25;8.00;;;;;14.00;22.92;99310.34;6237831;28;96303;-64
2023/04/04 11:13:40;;;;;;;;;6.20;6.00;;;;;14.34;22.73;99303.28;6239495;28;97334;-64
2023/04/04 11:16:52;;;;;;;;;8.00;7.20;;;;;14.69;22.69;99293.28;6201242;28;100275;-64
2023/04/04 11:19:59;;;;;;;;;5.25;5.25;;;;;14.81;21.83;99293.25;6229288;28;96801;-65
2023/04/04 11:23:04;;;;;;;;;9.00;8.50;;;;;14.82;22.39;99288.66;6222082;28;96330;-65
2023/04/04 11:26:07;;;;;;;;;6.20;6.00;;;;;14.65;21.84;99273.13;6236419;28;96303;-65
2023/04/04 11:29:22;;;;;;;;;10.00;9.00;;;;;14.63;22.65;99294.22;6214158;28;97029;-64
2023/04/04 11:32:43;;;;;;;;;6.40;6.00;;;;;14.57;21.84;99291.63;6235992;28;96326;-64
2023/04/04 11:36:03;;;;;;;;;7.00;6.25;;;;;14.48;22.79;99290.34;6219081;28;96811;-64
2023/04/04 11:39:15;;;;;;;;;6.50;6.00;;;;;14.37;22.30;99291.19;6225456;28;96721;-65
2023/04/04 11:42:21;;;;;;;;;7.00;7.00;;;;;14.42;22.55;99283.97;6237958;28;96429;-64
2023/04/04 11:45:25;;;;;;;;;7.00;6.00;;;;;14.21;22.96;99292.69;6239137;28;96436;-64
2023/04/04 11:48:32;;;;;;;;;8.00;8.00;;;;;14.07;23.83;99304.81;6220491;28;96369;-64
2023/04/04 11:51:36;;;;;;;;;7.00;6.25;;;;;13.99;23.64;99297.00;6239058;28;96844;-64
2023/04/04 11:54:41;;;;;;;;;9.50;9.50;;;;;14.14;24.15;99294.69;6203394;28;99923;-64
2023/04/04 11:57:46;;;;;;;;;7.00;7.00;;;;;14.23;24.17;99291.38;6238884;28;96454;-64
2023/04/04 12:00:49;;;;;;;;;6.80;6.80;;;;;14.31;23.41;99292.94;6236862;28;96462;-64
2023/04/04 12:03:55;;;;;;;;;8.60;8.00;;;;;14.29;23.25;99293.16;6238344;28;96232;-65
2023/04/04 12:06:59;;;;;;;;;7.20;6.80;;;;;14.31;23.04;99285.63;6238359;28;96729;-64
2023/04/04 12:10:03;;;;;;;;;9.00;8.00;;;;;14.64;22.86;99289.63;6220226;28;96390;-65
2023/04/04 12:13:08;;;;;;;;;8.00;7.00;;;;;14.96;23.03;99287.31;6212104;28;96248;-64
2023/04/04 12:16:12;;;;;;;;;7.00;6.20;;;;;14.96;22.15;99252.84;6193939;28;96505;-65
2023/04/04 12:19:17;;;;;;;;;9.40;9.40;;;;;15.42;22.20;99273.56;6216728;28;98772;-64
2023/04/04 12:22:20;;;;;;;;;6.60;6.60;;;;;15.54;22.00;99268.91;6232934;28;96243;-64
2023/04/04 12:25:27;;;;;;;;;5.00;4.75;;;;;15.56;22.16;99271.41;6238187;28;96226;-65
2023/04/04 12:28:33;;;;;;;;;8.00;8.00;;;;;15.60;22.52;99272.56;6238201;28;96377;-65
2023/04/04 12:31:40;;;;;;;;;9.40;9.00;;;;;15.79;22.43;99273.16;6219972;28;96397;-65
2023/04/04 12:34:47;;;;;;;;;7.40;7.00;;;;;15.56;22.27;99277.66;6237991;28;96780;-65
2023/04/04 12:38:03;;;;;;;;;7.60;6.60;;;;;15.45;22.86;99259.47;6227393;28;96731;-65
2023/04/04 12:41:16;;;;;;;;;6.00;6.00;;;;;15.21;22.39;99249.78;6235852;28;96917;-65
2023/04/04 12:44:27;;;;;;;;;8.00;8.00;;;;;15.23;23.43;99249.56;6233852;28;96312;-64
2023/04/04 12:47:31;;;;;;;;;7.80;7.80;;;;;15.54;23.17;99259.97;6218124;28;97265;-65
2023/04/04 12:50:49;;;;;;;;;6.00;5.00;;;;;15.73;23.18;99249.69;6218788;28;96856;-65
2023/04/04 12:53:55;;;;;;;;;9.00;8.40;;;;;15.58;22.07;99255.69;6232939;28;96447;-64
2023/04/04 12:56:59;;;;;;;;;5.40;5.40;;;;;15.22;22.55;99253.34;6217673;28;96412;-64
2023/04/04 13:00:07;;;;;;;;;8.00;8.00;;;;;14.87;22.65;99251.56;6216015;28;96446;-65
2023/04/04 13:03:14;;;;;;;;;5.80;5.40;;;;;14.44;23.42;99249.31;6236746;28;96113;-65
2023/04/04 13:06:20;;;;;;;;;6.00;6.00;;;;;14.11;23.49;99251.78;6233030;28;96409;-65
2023/04/04 13:09:23;;;;;;;;;5.80;5.80;;;;;13.59;24.25;99250.75;6229544;28;96480;-65
2023/04/04 13:12:27;;;;;;;;;9.75;9.00;;;;;13.28;24.74;99241.84;6237304;28;96256;-65
2023/04/04 13:15:50;;;;;;;;;6.75;6.75;;;;;13.12;25.44;99238.97;6219602;28;96360;-65
2023/04/04 13:18:53;;;;;;;;;8.50;8.00;;;;;12.97;26.12;99242.88;6217513;28;96498;-65
2023/04/04 13:21:58;;;;;;;;;9.00;8.00;;;;;12.57;25.11;99244.41;6236200;28;96328;-64
2023/04/04 13:25:01;;;;;;;;;9.40;9.00;;;;;12.50;25.66;99236.38;6237070;28;96841;-65
2023/04/04 13:28:05;;;;;;;;;6.50;6.50;;;;;12.39;26.05;99241.72;6237292;28;96321;-65
2023/04/04 13:31:10;;;;;;;;;8.00;7.00;;;;;12.03;27.04;99226.25;6237148;28;96783;-65
2023/04/04 13:34:13;;;;;;;;;9.00;8.00;;;;;11.73;27.40;99239.63;6222624;28;97019;-65
2023/04/04 13:37:19;;;;;;;;;5.00;4.00;;;;;11.59;28.01;99249.69;6235372;28;96335;-64
2023/04/04 13:40:22;;;;;;;;;9.80;9.00;;;;;11.31;27.62;99249.25;6193831;28;101066;-65
2023/04/04 13:43:26;;;;;;;;;6.60;6.60;;;;;11.17;27.71;99255.78;6203353;28;97060;-65
2023/04/04 13:46:29;;;;;;;;;9.00;9.00;;;;;11.08;28.55;99260.63;6210456;28;96781;-65
2023/04/04 13:49:32;;;;;;;;;9.00;8.60;;;;;10.94;28.22;99252.81;6209644;28;96333;-65
2023/04/04 13:52:37;;;;;;;;;7.00;7.00;;;;;10.83;28.51;99238.13;6231574;28;96351;-65
2023/04/04 13:55:40;;;;;;;;;10.00;10.00;;;;;10.73;28.75;99252.06;6217934;28;96379;-65
2023/04/04 13:59:04;;;;;;;;;10.40;10.00;;;;;10.78;28.73;99238.75;6237415;27;97392;-65
2023/04/04 14:02:08;;;;;;;;;6.60;6.60;;;;;10.74;29.01;99244.81;6199766;28;96709;-65
2023/04/04 14:05:11;;;;;;;;;10.00;10.00;;;;;10.73;28.98;99240.44;6218833;28;96622;-65
2023/04/04 14:08:15;;;;;;;;;9.60;9.60;;;;;10.67;28.96;99247.50;6240164;28;96349;-65
2023/04/04 14:11:19;;;;;;;;;8.00;8.00;;;;;10.47;29.70;99244.06;6214127;28;98180;-65
2023/04/04 14:14:23;;;;;;;;;13.00;12.00;;;;;10.39;29.84;99250.53;6239212;28;96920;-65
2023/04/04 14:17:26;;;;;;;;;10.00;9.40;;;;;10.30;30.01;99246.41;6237081;28;96408;-65
2023/04/04 14:20:30;;;;;;;;;9.00;8.50;;;;;10.18;29.58;99228.38;6207060;28;96830;-65
2023/04/04 14:23:35;;;;;;;;;9.00;7.60;;;;;10.29;30.27;99252.81;6238697;28;96380;-65
2023/04/04 14:26:39;;;;;;;;;9.00;9.00;;;;;10.32;30.12;99248.88;6213226;28;96319;-65
2023/04/04 14:29:42;;;;;;;;;9.00;9.00;;;;;10.26;29.64;99252.44;6213270;28;97698;-65